Terminal Aerodrome Forecast
Issued by NWS

Home | Current Version | Previous Version | Text Only | Print | Product List | Glossary On
Versions: 1 2 3 4 5 6 7 8 9 10 11 12
000
FTUS41 KBTV 231700
TAFRUT
TAF
KRUT 231736Z 2318/2418 25007G18KT P6SM VCSH BKN040 OVC080
      TEMPO 2323/2401 1SM TSRA BR BKN020CB
     FM240200 32010KT P6SM BKN035 OVC060
     FM241400 35012KT P6SM SCT060
      AMD LTD TO CLD VIS AND WIND=

USA.gov is the U.S. government's official web portal to all federal, state and local government web resources and services.